sensor_id;sensor_type;location;lat;lon;timestamp;P1;durP1;ratioP1;P2;durP2;ratioP2
70102;SDS011;57470;50.034;15.256;2023-05-07T00:01:00;6.90;;;2.67;;
70102;SDS011;57470;50.034;15.256;2023-05-07T00:03:25;7.77;;;2.57;;
70102;SDS011;57470;50.034;15.256;2023-05-07T00:05:51;6.78;;;2.67;;
70102;SDS011;57470;50.034;15.256;2023-05-07T00:08:18;10.70;;;3.08;;
70102;SDS011;57470;50.034;15.256;2023-05-07T00:10:43;9.43;;;2.70;;
70102;SDS011;57470;50.034;15.256;2023-05-07T00:13:09;10.23;;;3.58;;
70102;SDS011;57470;50.034;15.256;2023-05-07T00:15:34;6.13;;;2.60;;
70102;SDS011;57470;50.034;15.256;2023-05-07T00:18:00;9.33;;;2.50;;
70102;SDS011;57470;50.034;15.256;2023-05-07T00:20:25;13.30;;;2.83;;
70102;SDS011;57470;50.034;15.256;2023-05-07T00:22:50;17.27;;;3.07;;
70102;SDS011;57470;50.034;15.256;2023-05-07T00:25:16;7.07;;;3.15;;
70102;SDS011;57470;50.034;15.256;2023-05-07T00:27:41;6.27;;;2.00;;
70102;SDS011;57470;50.034;15.256;2023-05-07T00:30:07;6.90;;;3.20;;
70102;SDS011;57470;50.034;15.256;2023-05-07T00:32:33;7.93;;;2.38;;
70102;SDS011;57470;50.034;15.256;2023-05-07T00:34:58;6.70;;;3.17;;
70102;SDS011;57470;50.034;15.256;2023-05-07T00:37:24;7.97;;;3.80;;
70102;SDS011;57470;50.034;15.256;2023-05-07T00:39:49;10.00;;;3.47;;
70102;SDS011;57470;50.034;15.256;2023-05-07T00:42:15;10.32;;;3.58;;
70102;SDS011;57470;50.034;15.256;2023-05-07T00:44:41;9.13;;;3.47;;
70102;SDS011;57470;50.034;15.256;2023-05-07T00:47:06;9.60;;;3.28;;
70102;SDS011;57470;50.034;15.256;2023-05-07T00:49:38;10.07;;;3.53;;
70102;SDS011;57470;50.034;15.256;2023-05-07T00:52:06;10.27;;;2.72;;
70102;SDS011;57470;50.034;15.256;2023-05-07T00:54:33;7.05;;;2.78;;
70102;SDS011;57470;50.034;15.256;2023-05-07T00:56:59;7.35;;;2.65;;
70102;SDS011;57470;50.034;15.256;2023-05-07T00:59:25;7.23;;;3.00;;
70102;SDS011;57470;50.034;15.256;2023-05-07T01:01:51;7.80;;;3.90;;
70102;SDS011;57470;50.034;15.256;2023-05-07T01:04:17;10.48;;;3.55;;
70102;SDS011;57470;50.034;15.256;2023-05-07T01:06:42;9.57;;;2.90;;
70102;SDS011;57470;50.034;15.256;2023-05-07T01:09:10;9.77;;;3.63;;
70102;SDS011;57470;50.034;15.256;2023-05-07T01:11:35;6.47;;;2.57;;
70102;SDS011;57470;50.034;15.256;2023-05-07T01:14:01;8.13;;;2.60;;
70102;SDS011;57470;50.034;15.256;2023-05-07T01:16:27;7.78;;;2.90;;
70102;SDS011;57470;50.034;15.256;2023-05-07T01:18:52;7.70;;;2.43;;
70102;SDS011;57470;50.034;15.256;2023-05-07T01:21:18;7.38;;;3.00;;
70102;SDS011;57470;50.034;15.256;2023-05-07T01:23:50;6.13;;;2.50;;
70102;SDS011;57470;50.034;15.256;2023-05-07T01:26:15;7.17;;;3.30;;
70102;SDS011;57470;50.034;15.256;2023-05-07T01:28:41;10.00;;;3.00;;
70102;SDS011;57470;50.034;15.256;2023-05-07T01:31:06;9.23;;;3.60;;
70102;SDS011;57470;50.034;15.256;2023-05-07T01:33:33;9.53;;;3.63;;
70102;SDS011;57470;50.034;15.256;2023-05-07T01:36:01;7.47;;;3.30;;
70102;SDS011;57470;50.034;15.256;2023-05-07T01:38:29;8.45;;;3.80;;
70102;SDS011;57470;50.034;15.256;2023-05-07T01:40:55;9.82;;;2.45;;
70102;SDS011;57470;50.034;15.256;2023-05-07T01:43:21;9.37;;;2.83;;
70102;SDS011;57470;50.034;15.256;2023-05-07T01:45:46;7.65;;;3.10;;
70102;SDS011;57470;50.034;15.256;2023-05-07T01:48:14;9.65;;;3.58;;
70102;SDS011;57470;50.034;15.256;2023-05-07T01:50:40;7.40;;;3.47;;
70102;SDS011;57470;50.034;15.256;2023-05-07T01:53:07;9.65;;;3.03;;
70102;SDS011;57470;50.034;15.256;2023-05-07T01:55:33;9.33;;;3.83;;
70102;SDS011;57470;50.034;15.256;2023-05-07T01:57:58;8.90;;;3.50;;
70102;SDS011;57470;50.034;15.256;2023-05-07T02:00:24;9.80;;;3.77;;
70102;SDS011;57470;50.034;15.256;2023-05-07T02:02:50;8.20;;;3.37;;
70102;SDS011;57470;50.034;15.256;2023-05-07T02:05:16;11.25;;;4.13;;
70102;SDS011;57470;50.034;15.256;2023-05-07T02:07:42;6.13;;;2.93;;
70102;SDS011;57470;50.034;15.256;2023-05-07T02:10:08;9.88;;;3.67;;
70102;SDS011;57470;50.034;15.256;2023-05-07T02:12:35;11.70;;;4.03;;
70102;SDS011;57470;50.034;15.256;2023-05-07T02:15:01;10.75;;;3.47;;
70102;SDS011;57470;50.034;15.256;2023-05-07T02:17:29;10.40;;;3.20;;
70102;SDS011;57470;50.034;15.256;2023-05-07T02:19:57;6.65;;;2.92;;
70102;SDS011;57470;50.034;15.256;2023-05-07T02:22:25;7.68;;;3.28;;
70102;SDS011;57470;50.034;15.256;2023-05-07T02:24:52;8.43;;;2.90;;
70102;SDS011;57470;50.034;15.256;2023-05-07T02:27:19;9.10;;;3.10;;
70102;SDS011;57470;50.034;15.256;2023-05-07T02:29:46;10.90;;;3.90;;
70102;SDS011;57470;50.034;15.256;2023-05-07T02:32:13;9.95;;;4.18;;
70102;SDS011;57470;50.034;15.256;2023-05-07T02:34:39;9.80;;;3.78;;
70102;SDS011;57470;50.034;15.256;2023-05-07T02:37:06;10.13;;;4.17;;
70102;SDS011;57470;50.034;15.256;2023-05-07T02:39:33;9.82;;;4.30;;
70102;SDS011;57470;50.034;15.256;2023-05-07T02:42:00;10.98;;;3.85;;
70102;SDS011;57470;50.034;15.256;2023-05-07T02:44:27;11.50;;;4.15;;
70102;SDS011;57470;50.034;15.256;2023-05-07T02:46:56;10.43;;;3.78;;
70102;SDS011;57470;50.034;15.256;2023-05-07T02:49:23;8.17;;;3.30;;
70102;SDS011;57470;50.034;15.256;2023-05-07T02:51:50;8.45;;;3.60;;
70102;SDS011;57470;50.034;15.256;2023-05-07T02:54:16;10.40;;;3.95;;
70102;SDS011;57470;50.034;15.256;2023-05-07T02:56:43;10.00;;;3.63;;
70102;SDS011;57470;50.034;15.256;2023-05-07T02:59:10;8.77;;;3.08;;
70102;SDS011;57470;50.034;15.256;2023-05-07T03:01:37;8.70;;;4.10;;
70102;SDS011;57470;50.034;15.256;2023-05-07T03:04:03;9.90;;;2.78;;
70102;SDS011;57470;50.034;15.256;2023-05-07T03:06:29;12.23;;;4.38;;
70102;SDS011;57470;50.034;15.256;2023-05-07T03:08:54;8.80;;;4.07;;
70102;SDS011;57470;50.034;15.256;2023-05-07T03:11:20;10.23;;;3.33;;
70102;SDS011;57470;50.034;15.256;2023-05-07T03:13:45;6.73;;;2.67;;
70102;SDS011;57470;50.034;15.256;2023-05-07T03:16:10;8.02;;;3.42;;
70102;SDS011;57470;50.034;15.256;2023-05-07T03:18:36;11.50;;;3.53;;
70102;SDS011;57470;50.034;15.256;2023-05-07T03:21:01;8.67;;;3.20;;
70102;SDS011;57470;50.034;15.256;2023-05-07T03:23:27;11.07;;;3.42;;
70102;SDS011;57470;50.034;15.256;2023-05-07T03:25:52;6.70;;;3.07;;
70102;SDS011;57470;50.034;15.256;2023-05-07T03:28:18;8.20;;;2.97;;
70102;SDS011;57470;50.034;15.256;2023-05-07T03:30:43;10.60;;;3.40;;
70102;SDS011;57470;50.034;15.256;2023-05-07T03:33:08;10.43;;;3.90;;
70102;SDS011;57470;50.034;15.256;2023-05-07T03:35:34;9.33;;;2.87;;
70102;SDS011;57470;50.034;15.256;2023-05-07T03:37:59;8.07;;;3.10;;
70102;SDS011;57470;50.034;15.256;2023-05-07T03:40:26;10.55;;;4.20;;
70102;SDS011;57470;50.034;15.256;2023-05-07T03:42:52;10.20;;;2.50;;
70102;SDS011;57470;50.034;15.256;2023-05-07T03:45:17;13.50;;;3.43;;
70102;SDS011;57470;50.034;15.256;2023-05-07T03:47:42;8.53;;;2.93;;
70102;SDS011;57470;50.034;15.256;2023-05-07T03:50:08;7.40;;;2.47;;
70102;SDS011;57470;50.034;15.256;2023-05-07T03:52:34;8.45;;;2.72;;
70102;SDS011;57470;50.034;15.256;2023-05-07T03:54:59;7.53;;;2.80;;
70102;SDS011;57470;50.034;15.256;2023-05-07T03:57:25;9.60;;;3.63;;
70102;SDS011;57470;50.034;15.256;2023-05-07T03:59:50;6.17;;;2.53;;
70102;SDS011;57470;50.034;15.256;2023-05-07T04:02:16;8.03;;;2.67;;
70102;SDS011;57470;50.034;15.256;2023-05-07T04:04:41;6.27;;;2.50;;
70102;SDS011;57470;50.034;15.256;2023-05-07T04:07:06;7.40;;;2.33;;
70102;SDS011;57470;50.034;15.256;2023-05-07T04:09:32;9.93;;;2.78;;
70102;SDS011;57470;50.034;15.256;2023-05-07T04:11:57;7.73;;;2.67;;
70102;SDS011;57470;50.034;15.256;2023-05-07T04:14:23;7.07;;;2.27;;
70102;SDS011;57470;50.034;15.256;2023-05-07T04:16:48;7.27;;;3.43;;
70102;SDS011;57470;50.034;15.256;2023-05-07T04:19:13;8.60;;;2.93;;
70102;SDS011;57470;50.034;15.256;2023-05-07T04:21:39;5.73;;;2.13;;
70102;SDS011;57470;50.034;15.256;2023-05-07T04:24:05;7.30;;;3.00;;
70102;SDS011;57470;50.034;15.256;2023-05-07T04:26:30;8.00;;;3.00;;
70102;SDS011;57470;50.034;15.256;2023-05-07T04:28:56;7.72;;;2.70;;
70102;SDS011;57470;50.034;15.256;2023-05-07T04:31:24;5.57;;;2.28;;
70102;SDS011;57470;50.034;15.256;2023-05-07T04:33:49;6.63;;;2.92;;
70102;SDS011;57470;50.034;15.256;2023-05-07T04:36:16;5.37;;;2.03;;
70102;SDS011;57470;50.034;15.256;2023-05-07T04:38:42;7.97;;;2.58;;
70102;SDS011;57470;50.034;15.256;2023-05-07T04:41:08;6.87;;;2.17;;
70102;SDS011;57470;50.034;15.256;2023-05-07T04:43:33;8.27;;;2.75;;
70102;SDS011;57470;50.034;15.256;2023-05-07T04:45:59;7.43;;;2.27;;
70102;SDS011;57470;50.034;15.256;2023-05-07T04:48:24;5.30;;;1.67;;
70102;SDS011;57470;50.034;15.256;2023-05-07T04:50:51;8.00;;;2.92;;
70102;SDS011;57470;50.034;15.256;2023-05-07T04:53:17;8.63;;;2.58;;
70102;SDS011;57470;50.034;15.256;2023-05-07T04:55:43;6.40;;;2.37;;
70102;SDS011;57470;50.034;15.256;2023-05-07T04:58:10;6.47;;;2.33;;
70102;SDS011;57470;50.034;15.256;2023-05-07T05:00:36;6.32;;;2.30;;
70102;SDS011;57470;50.034;15.256;2023-05-07T05:03:01;6.60;;;2.70;;
70102;SDS011;57470;50.034;15.256;2023-05-07T05:05:27;9.13;;;1.77;;
70102;SDS011;57470;50.034;15.256;2023-05-07T05:07:52;6.97;;;2.20;;
70102;SDS011;57470;50.034;15.256;2023-05-07T05:10:18;5.83;;;2.23;;
70102;SDS011;57470;50.034;15.256;2023-05-07T05:12:43;8.53;;;2.73;;
70102;SDS011;57470;50.034;15.256;2023-05-07T05:15:10;6.23;;;2.67;;
70102;SDS011;57470;50.034;15.256;2023-05-07T05:17:36;9.27;;;2.90;;
70102;SDS011;57470;50.034;15.256;2023-05-07T05:20:02;7.73;;;2.60;;
70102;SDS011;57470;50.034;15.256;2023-05-07T05:22:28;5.72;;;2.22;;
70102;SDS011;57470;50.034;15.256;2023-05-07T05:24:56;8.60;;;2.30;;
70102;SDS011;57470;50.034;15.256;2023-05-07T05:27:21;7.10;;;2.37;;
70102;SDS011;57470;50.034;15.256;2023-05-07T05:29:46;4.57;;;1.70;;
70102;SDS011;57470;50.034;15.256;2023-05-07T05:32:12;8.67;;;2.77;;
70102;SDS011;57470;50.034;15.256;2023-05-07T05:34:37;6.32;;;2.40;;
70102;SDS011;57470;50.034;15.256;2023-05-07T05:37:02;6.77;;;2.67;;
70102;SDS011;57470;50.034;15.256;2023-05-07T05:39:28;9.13;;;1.90;;
70102;SDS011;57470;50.034;15.256;2023-05-07T05:41:53;4.93;;;1.73;;
70102;SDS011;57470;50.034;15.256;2023-05-07T05:44:19;8.70;;;2.90;;
70102;SDS011;57470;50.034;15.256;2023-05-07T05:46:44;6.60;;;2.00;;
70102;SDS011;57470;50.034;15.256;2023-05-07T05:49:10;6.53;;;2.17;;
70102;SDS011;57470;50.034;15.256;2023-05-07T05:51:35;4.77;;;1.47;;
70102;SDS011;57470;50.034;15.256;2023-05-07T05:54:00;5.30;;;1.53;;
70102;SDS011;57470;50.034;15.256;2023-05-07T05:56:26;6.13;;;2.50;;
70102;SDS011;57470;50.034;15.256;2023-05-07T05:58:52;6.00;;;2.00;;
70102;SDS011;57470;50.034;15.256;2023-05-07T06:01:17;5.43;;;2.20;;
70102;SDS011;57470;50.034;15.256;2023-05-07T06:03:43;5.03;;;2.08;;
70102;SDS011;57470;50.034;15.256;2023-05-07T06:06:09;5.10;;;1.67;;
70102;SDS011;57470;50.034;15.256;2023-05-07T06:08:34;4.38;;;1.63;;
70102;SDS011;57470;50.034;15.256;2023-05-07T06:11:00;5.77;;;1.87;;
70102;SDS011;57470;50.034;15.256;2023-05-07T06:13:26;5.95;;;1.85;;
70102;SDS011;57470;50.034;15.256;2023-05-07T06:15:52;6.50;;;1.83;;
70102;SDS011;57470;50.034;15.256;2023-05-07T06:18:18;5.97;;;2.43;;
70102;SDS011;57470;50.034;15.256;2023-05-07T06:20:43;8.43;;;2.70;;
70102;SDS011;57470;50.034;15.256;2023-05-07T06:23:09;7.00;;;2.00;;
70102;SDS011;57470;50.034;15.256;2023-05-07T06:25:34;6.97;;;2.63;;
70102;SDS011;57470;50.034;15.256;2023-05-07T06:27:59;5.37;;;1.40;;
70102;SDS011;57470;50.034;15.256;2023-05-07T06:30:25;6.60;;;2.83;;
70102;SDS011;57470;50.034;15.256;2023-05-07T06:32:51;5.80;;;1.90;;
70102;SDS011;57470;50.034;15.256;2023-05-07T06:35:17;7.60;;;2.03;;
70102;SDS011;57470;50.034;15.256;2023-05-07T06:37:42;10.00;;;3.53;;
70102;SDS011;57470;50.034;15.256;2023-05-07T06:40:08;6.50;;;2.60;;
70102;SDS011;57470;50.034;15.256;2023-05-07T06:42:35;8.83;;;2.53;;
70102;SDS011;57470;50.034;15.256;2023-05-07T06:45:01;7.70;;;2.10;;
70102;SDS011;57470;50.034;15.256;2023-05-07T06:47:27;4.78;;;1.85;;
70102;SDS011;57470;50.034;15.256;2023-05-07T06:49:53;10.53;;;2.80;;
70102;SDS011;57470;50.034;15.256;2023-05-07T06:52:18;5.63;;;2.25;;
70102;SDS011;57470;50.034;15.256;2023-05-07T06:54:43;7.70;;;2.70;;
70102;SDS011;57470;50.034;15.256;2023-05-07T06:57:09;5.17;;;1.60;;
70102;SDS011;57470;50.034;15.256;2023-05-07T06:59:34;8.13;;;3.23;;
70102;SDS011;57470;50.034;15.256;2023-05-07T07:02:00;8.10;;;2.67;;
70102;SDS011;57470;50.034;15.256;2023-05-07T07:04:25;7.57;;;2.50;;
70102;SDS011;57470;50.034;15.256;2023-05-07T07:06:54;8.80;;;2.77;;
70102;SDS011;57470;50.034;15.256;2023-05-07T07:09:19;6.55;;;2.10;;
70102;SDS011;57470;50.034;15.256;2023-05-07T07:11:45;6.83;;;2.57;;
70102;SDS011;57470;50.034;15.256;2023-05-07T07:14:10;7.40;;;2.13;;
70102;SDS011;57470;50.034;15.256;2023-05-07T07:16:35;6.27;;;1.97;;
70102;SDS011;57470;50.034;15.256;2023-05-07T07:19:01;6.57;;;2.17;;
70102;SDS011;57470;50.034;15.256;2023-05-07T07:21:26;6.00;;;1.90;;
70102;SDS011;57470;50.034;15.256;2023-05-07T07:23:51;6.93;;;2.03;;
70102;SDS011;57470;50.034;15.256;2023-05-07T07:26:17;8.60;;;2.30;;
70102;SDS011;57470;50.034;15.256;2023-05-07T07:28:43;9.67;;;2.50;;
70102;SDS011;57470;50.034;15.256;2023-05-07T07:31:10;7.07;;;2.67;;
70102;SDS011;57470;50.034;15.256;2023-05-07T07:33:36;6.85;;;2.75;;
70102;SDS011;57470;50.034;15.256;2023-05-07T07:36:01;7.57;;;2.13;;
70102;SDS011;57470;50.034;15.256;2023-05-07T07:38:27;6.13;;;1.73;;
70102;SDS011;57470;50.034;15.256;2023-05-07T07:40:53;5.30;;;1.23;;
70102;SDS011;57470;50.034;15.256;2023-05-07T07:43:18;8.20;;;2.53;;
70102;SDS011;57470;50.034;15.256;2023-05-07T07:45:43;9.00;;;2.80;;
70102;SDS011;57470;50.034;15.256;2023-05-07T07:48:10;7.07;;;2.73;;
70102;SDS011;57470;50.034;15.256;2023-05-07T07:50:36;5.50;;;1.33;;
70102;SDS011;57470;50.034;15.256;2023-05-07T07:53:01;4.63;;;1.67;;
70102;SDS011;57470;50.034;15.256;2023-05-07T07:55:27;6.37;;;2.47;;
70102;SDS011;57470;50.034;15.256;2023-05-07T07:57:52;5.88;;;1.75;;
70102;SDS011;57470;50.034;15.256;2023-05-07T08:00:18;5.40;;;1.50;;
70102;SDS011;57470;50.034;15.256;2023-05-07T08:02:43;4.50;;;1.67;;
70102;SDS011;57470;50.034;15.256;2023-05-07T08:05:09;3.17;;;0.80;;
70102;SDS011;57470;50.034;15.256;2023-05-07T08:07:34;4.13;;;1.27;;
70102;SDS011;57470;50.034;15.256;2023-05-07T08:10:00;4.40;;;1.60;;
70102;SDS011;57470;50.034;15.256;2023-05-07T08:12:25;4.93;;;1.13;;
70102;SDS011;57470;50.034;15.256;2023-05-07T08:14:51;5.03;;;1.40;;
70102;SDS011;57470;50.034;15.256;2023-05-07T08:17:16;4.37;;;1.33;;
70102;SDS011;57470;50.034;15.256;2023-05-07T08:19:42;3.93;;;1.20;;
70102;SDS011;57470;50.034;15.256;2023-05-07T08:22:08;4.00;;;1.42;;
70102;SDS011;57470;50.034;15.256;2023-05-07T08:24:34;3.83;;;1.05;;
70102;SDS011;57470;50.034;15.256;2023-05-07T08:26:59;4.40;;;1.20;;
70102;SDS011;57470;50.034;15.256;2023-05-07T08:29:25;8.00;;;1.30;;
70102;SDS011;57470;50.034;15.256;2023-05-07T08:31:50;3.37;;;1.10;;
70102;SDS011;57470;50.034;15.256;2023-05-07T08:34:16;4.50;;;1.57;;
70102;SDS011;57470;50.034;15.256;2023-05-07T08:36:41;2.80;;;0.70;;
70102;SDS011;57470;50.034;15.256;2023-05-07T08:39:07;3.27;;;0.80;;
70102;SDS011;57470;50.034;15.256;2023-05-07T08:41:32;3.37;;;0.93;;
70102;SDS011;57470;50.034;15.256;2023-05-07T08:43:58;6.30;;;1.43;;
70102;SDS011;57470;50.034;15.256;2023-05-07T08:46:27;6.57;;;1.35;;
70102;SDS011;57470;50.034;15.256;2023-05-07T08:48:56;4.68;;;1.50;;
70102;SDS011;57470;50.034;15.256;2023-05-07T08:51:21;3.57;;;1.00;;
70102;SDS011;57470;50.034;15.256;2023-05-07T08:53:47;2.60;;;0.60;;
70102;SDS011;57470;50.034;15.256;2023-05-07T08:56:15;3.65;;;1.08;;
70102;SDS011;57470;50.034;15.256;2023-05-07T08:58:41;3.42;;;1.15;;
70102;SDS011;57470;50.034;15.256;2023-05-07T09:01:08;3.88;;;1.10;;
70102;SDS011;57470;50.034;15.256;2023-05-07T09:03:36;3.22;;;1.00;;
70102;SDS011;57470;50.034;15.256;2023-05-07T09:06:04;4.93;;;1.23;;
70102;SDS011;57470;50.034;15.256;2023-05-07T09:08:29;3.80;;;0.95;;
70102;SDS011;57470;50.034;15.256;2023-05-07T09:10:55;3.20;;;0.83;;
70102;SDS011;57470;50.034;15.256;2023-05-07T09:13:20;4.77;;;0.77;;
70102;SDS011;57470;50.034;15.256;2023-05-07T09:15:46;16.40;;;1.58;;
70102;SDS011;57470;50.034;15.256;2023-05-07T09:18:14;4.37;;;1.30;;
70102;SDS011;57470;50.034;15.256;2023-05-07T09:20:40;3.60;;;1.08;;
70102;SDS011;57470;50.034;15.256;2023-05-07T09:23:06;3.83;;;1.17;;
70102;SDS011;57470;50.034;15.256;2023-05-07T09:25:33;4.07;;;1.55;;
70102;SDS011;57470;50.034;15.256;2023-05-07T09:28:02;4.20;;;1.35;;
70102;SDS011;57470;50.034;15.256;2023-05-07T09:30:32;3.80;;;1.20;;
70102;SDS011;57470;50.034;15.256;2023-05-07T09:32:59;6.47;;;2.03;;
70102;SDS011;57470;50.034;15.256;2023-05-07T09:35:25;3.17;;;0.73;;
70102;SDS011;57470;50.034;15.256;2023-05-07T09:37:57;3.88;;;1.30;;
70102;SDS011;57470;50.034;15.256;2023-05-07T09:40:25;4.95;;;1.80;;
70102;SDS011;57470;50.034;15.256;2023-05-07T09:42:52;3.40;;;1.25;;
70102;SDS011;57470;50.034;15.256;2023-05-07T09:45:21;3.70;;;1.20;;
70102;SDS011;57470;50.034;15.256;2023-05-07T09:47:50;4.05;;;1.33;;
70102;SDS011;57470;50.034;15.256;2023-05-07T09:50:19;4.15;;;1.50;;
70102;SDS011;57470;50.034;15.256;2023-05-07T09:52:50;7.07;;;1.67;;
70102;SDS011;57470;50.034;15.256;2023-05-07T09:55:16;4.53;;;2.00;;
70102;SDS011;57470;50.034;15.256;2023-05-07T09:57:43;4.28;;;1.23;;
70102;SDS011;57470;50.034;15.256;2023-05-07T10:00:10;5.07;;;1.83;;
70102;SDS011;57470;50.034;15.256;2023-05-07T10:02:36;4.50;;;1.80;;
70102;SDS011;57470;50.034;15.256;2023-05-07T10:05:06;5.40;;;1.47;;
70102;SDS011;57470;50.034;15.256;2023-05-07T10:07:32;5.13;;;1.63;;
70102;SDS011;57470;50.034;15.256;2023-05-07T10:09:57;5.10;;;1.45;;
70102;SDS011;57470;50.034;15.256;2023-05-07T10:12:24;5.43;;;1.57;;
70102;SDS011;57470;50.034;15.256;2023-05-07T10:14:50;4.00;;;1.42;;
70102;SDS011;57470;50.034;15.256;2023-05-07T10:17:18;5.10;;;1.60;;
70102;SDS011;57470;50.034;15.256;2023-05-07T10:19:44;4.80;;;1.88;;
70102;SDS011;57470;50.034;15.256;2023-05-07T10:22:09;4.67;;;1.30;;
70102;SDS011;57470;50.034;15.256;2023-05-07T10:24:37;3.67;;;1.13;;
70102;SDS011;57470;50.034;15.256;2023-05-07T10:27:04;5.47;;;1.73;;
70102;SDS011;57470;50.034;15.256;2023-05-07T10:34:51;4.13;;;1.23;;
70102;SDS011;57470;50.034;15.256;2023-05-07T10:37:20;4.22;;;1.25;;
70102;SDS011;57470;50.034;15.256;2023-05-07T10:39:45;4.57;;;1.13;;
70102;SDS011;57470;50.034;15.256;2023-05-07T10:42:12;3.25;;;1.00;;
70102;SDS011;57470;50.034;15.256;2023-05-07T10:44:38;4.30;;;1.20;;
70102;SDS011;57470;50.034;15.256;2023-05-07T10:50:19;4.53;;;1.67;;
70102;SDS011;57470;50.034;15.256;2023-05-07T10:52:21;4.78;;;1.70;;
70102;SDS011;57470;50.034;15.256;2023-05-07T10:54:48;4.72;;;1.67;;
70102;SDS011;57470;50.034;15.256;2023-05-07T10:57:50;4.53;;;1.43;;
70102;SDS011;57470;50.034;15.256;2023-05-07T11:00:40;4.70;;;1.33;;
70102;SDS011;57470;50.034;15.256;2023-05-07T11:03:04;4.45;;;1.40;;
70102;SDS011;57470;50.034;15.256;2023-05-07T11:05:32;4.20;;;1.47;;
70102;SDS011;57470;50.034;15.256;2023-05-07T11:07:59;4.50;;;1.70;;
70102;SDS011;57470;50.034;15.256;2023-05-07T11:10:47;5.03;;;1.73;;
70102;SDS011;57470;50.034;15.256;2023-05-07T11:13:13;6.05;;;1.95;;
70102;SDS011;57470;50.034;15.256;2023-05-07T11:15:40;3.83;;;1.20;;
70102;SDS011;57470;50.034;15.256;2023-05-07T11:18:08;4.93;;;1.63;;
70102;SDS011;57470;50.034;15.256;2023-05-07T11:26:14;5.47;;;1.67;;
70102;SDS011;57470;50.034;15.256;2023-05-07T11:28:41;5.00;;;1.95;;
70102;SDS011;57470;50.034;15.256;2023-05-07T11:31:08;6.03;;;1.27;;
70102;SDS011;57470;50.034;15.256;2023-05-07T11:33:34;5.40;;;2.10;;
70102;SDS011;57470;50.034;15.256;2023-05-07T11:36:02;5.25;;;1.90;;
70102;SDS011;57470;50.034;15.256;2023-05-07T11:38:29;6.18;;;2.10;;
70102;SDS011;57470;50.034;15.256;2023-05-07T11:40:56;6.03;;;2.22;;
70102;SDS011;57470;50.034;15.256;2023-05-07T11:43:23;5.73;;;2.23;;
70102;SDS011;57470;50.034;15.256;2023-05-07T11:45:49;8.00;;;4.07;;
70102;SDS011;57470;50.034;15.256;2023-05-07T11:48:16;7.60;;;3.22;;
70102;SDS011;57470;50.034;15.256;2023-05-07T11:50:59;6.60;;;2.63;;
70102;SDS011;57470;50.034;15.256;2023-05-07T11:53:27;7.40;;;2.95;;
70102;SDS011;57470;50.034;15.256;2023-05-07T11:55:56;5.72;;;2.15;;
70102;SDS011;57470;50.034;15.256;2023-05-07T11:58:22;5.28;;;2.30;;
70102;SDS011;57470;50.034;15.256;2023-05-07T12:00:52;6.33;;;2.33;;
70102;SDS011;57470;50.034;15.256;2023-05-07T12:03:19;5.90;;;1.83;;
70102;SDS011;57470;50.034;15.256;2023-05-07T12:05:46;4.05;;;1.45;;
70102;SDS011;57470;50.034;15.256;2023-05-07T12:08:17;7.88;;;2.50;;
70102;SDS011;57470;50.034;15.256;2023-05-07T12:10:44;6.60;;;2.15;;
70102;SDS011;57470;50.034;15.256;2023-05-07T12:13:15;6.93;;;2.67;;
70102;SDS011;57470;50.034;15.256;2023-05-07T12:15:42;6.50;;;3.03;;
70102;SDS011;57470;50.034;15.256;2023-05-07T12:18:08;7.55;;;2.35;;
70102;SDS011;57470;50.034;15.256;2023-05-07T12:20:34;3.90;;;1.10;;
70102;SDS011;57470;50.034;15.256;2023-05-07T12:23:01;6.00;;;2.20;;
70102;SDS011;57470;50.034;15.256;2023-05-07T12:25:29;5.50;;;1.70;;
70102;SDS011;57470;50.034;15.256;2023-05-07T12:27:56;4.88;;;1.45;;
70102;SDS011;57470;50.034;15.256;2023-05-07T12:30:23;5.82;;;1.83;;
70102;SDS011;57470;50.034;15.256;2023-05-07T12:32:52;8.10;;;2.17;;
70102;SDS011;57470;50.034;15.256;2023-05-07T12:35:25;6.50;;;2.47;;
70102;SDS011;57470;50.034;15.256;2023-05-07T12:37:55;8.23;;;2.38;;
70102;SDS011;57470;50.034;15.256;2023-05-07T12:40:20;6.93;;;2.35;;
70102;SDS011;57470;50.034;15.256;2023-05-07T12:42:46;6.23;;;2.13;;
70102;SDS011;57470;50.034;15.256;2023-05-07T12:45:12;6.70;;;3.23;;
70102;SDS011;57470;50.034;15.256;2023-05-07T12:47:38;5.47;;;2.25;;
70102;SDS011;57470;50.034;15.256;2023-05-07T12:50:07;6.93;;;2.78;;
70102;SDS011;57470;50.034;15.256;2023-05-07T12:52:33;13.93;;;6.53;;
70102;SDS011;57470;50.034;15.256;2023-05-07T12:55:04;9.83;;;4.70;;
70102;SDS011;57470;50.034;15.256;2023-05-07T12:57:30;6.57;;;2.78;;
70102;SDS011;57470;50.034;15.256;2023-05-07T12:59:57;9.20;;;3.77;;
70102;SDS011;57470;50.034;15.256;2023-05-07T13:02:31;9.63;;;4.75;;
70102;SDS011;57470;50.034;15.256;2023-05-07T13:04:58;4.80;;;1.80;;
70102;SDS011;57470;50.034;15.256;2023-05-07T13:07:24;6.97;;;2.77;;
70102;SDS011;57470;50.034;15.256;2023-05-07T13:09:50;8.10;;;2.83;;
70102;SDS011;57470;50.034;15.256;2023-05-07T13:12:15;7.27;;;3.43;;
70102;SDS011;57470;50.034;15.256;2023-05-07T13:14:41;5.80;;;2.10;;
70102;SDS011;57470;50.034;15.256;2023-05-07T13:17:06;6.10;;;2.30;;
70102;SDS011;57470;50.034;15.256;2023-05-07T13:19:32;4.80;;;1.90;;
70102;SDS011;57470;50.034;15.256;2023-05-07T13:21:57;5.67;;;2.27;;
70102;SDS011;57470;50.034;15.256;2023-05-07T13:24:22;6.47;;;2.80;;
70102;SDS011;57470;50.034;15.256;2023-05-07T13:26:48;5.32;;;2.40;;
70102;SDS011;57470;50.034;15.256;2023-05-07T13:29:13;5.37;;;2.00;;
70102;SDS011;57470;50.034;15.256;2023-05-07T13:31:38;5.20;;;2.00;;
70102;SDS011;57470;50.034;15.256;2023-05-07T13:34:07;5.47;;;2.45;;
70102;SDS011;57470;50.034;15.256;2023-05-07T13:36:33;8.20;;;2.83;;
70102;SDS011;57470;50.034;15.256;2023-05-07T13:39:02;6.00;;;2.63;;
70102;SDS011;57470;50.034;15.256;2023-05-07T13:41:28;4.22;;;1.50;;
70102;SDS011;57470;50.034;15.256;2023-05-07T13:43:54;4.60;;;1.60;;
70102;SDS011;57470;50.034;15.256;2023-05-07T13:46:21;5.33;;;2.17;;
70102;SDS011;57470;50.034;15.256;2023-05-07T13:48:47;5.25;;;1.40;;
70102;SDS011;57470;50.034;15.256;2023-05-07T13:51:12;5.30;;;1.95;;
70102;SDS011;57470;50.034;15.256;2023-05-07T13:53:38;5.97;;;2.00;;
70102;SDS011;57470;50.034;15.256;2023-05-07T13:56:03;4.70;;;1.60;;
70102;SDS011;57470;50.034;15.256;2023-05-07T13:58:29;4.93;;;2.13;;
70102;SDS011;57470;50.034;15.256;2023-05-07T14:00:55;5.63;;;1.30;;
70102;SDS011;57470;50.034;15.256;2023-05-07T14:03:21;4.53;;;1.53;;
70102;SDS011;57470;50.034;15.256;2023-05-07T14:05:46;5.90;;;2.20;;
70102;SDS011;57470;50.034;15.256;2023-05-07T14:08:12;4.90;;;1.92;;
70102;SDS011;57470;50.034;15.256;2023-05-07T14:10:39;6.10;;;1.85;;
70102;SDS011;57470;50.034;15.256;2023-05-07T14:13:04;9.25;;;2.63;;
70102;SDS011;57470;50.034;15.256;2023-05-07T14:15:30;4.93;;;1.63;;
70102;SDS011;57470;50.034;15.256;2023-05-07T14:17:57;6.82;;;2.38;;
70102;SDS011;57470;50.034;15.256;2023-05-07T14:20:24;8.48;;;4.10;;
70102;SDS011;57470;50.034;15.256;2023-05-07T14:22:49;6.33;;;2.27;;
70102;SDS011;57470;50.034;15.256;2023-05-07T14:25:15;5.07;;;1.88;;
70102;SDS011;57470;50.034;15.256;2023-05-07T14:27:42;4.22;;;1.30;;
70102;SDS011;57470;50.034;15.256;2023-05-07T14:30:08;4.13;;;1.53;;
70102;SDS011;57470;50.034;15.256;2023-05-07T14:32:33;5.37;;;2.03;;
70102;SDS011;57470;50.034;15.256;2023-05-07T14:34:59;4.75;;;1.90;;
70102;SDS011;57470;50.034;15.256;2023-05-07T14:37:24;3.60;;;1.23;;
70102;SDS011;57470;50.034;15.256;2023-05-07T14:39:50;4.73;;;1.63;;
70102;SDS011;57470;50.034;15.256;2023-05-07T14:42:15;8.20;;;1.27;;